Terminal Aerodrome Forecast
Issued by NWS Sterling, VA

Current Version | Previous Version | Text Only | Print | Product List | Glossary Off
Versions: 1 2 3 4 5 6 7 8 9 10 11 12 13 14 15 16 17 18 19 20 21 22 23 24 25

000
FTUS41 KLWX 161500 AAA
TAFDCA
TAF AMD
KDCA 161524Z 1615/1712 19004KT 6SM HZ SCT110 BKN140 OVC250
     FM161600 17008KT 4SM -SHRA OVC050
     FM162100 19006KT P6SM BKN015
     FM170300 24004KT P6SM BKN050
     FM170500 26006KT P6SM SCT050
     FM170600 26006KT P6SM SCT250=

USA.gov is the U.S. government's official web portal to all federal, state and local government web resources and services.